Time;durP1;ratioP1;P1;durP2;ratioP2;P2;SDS_P1;SDS_P2;PMS_P1;PMS_P2;Temp;Humidity;BMP_temperature;BMP_pressure;BME280_temperature;BME280_humidity;BME280_pressure;Samples;Min_cycle;Max_cycle;Signal;HPM_P1;HPM_P2
2022/09/05 00:02:03;;;;;;;6.87;3.30;;;;;;;;;;5039271;28;20560;-80
2022/09/05 00:05:29;;;;;;;8.03;3.63;;;;;;;;;;5027609;28;20181;-79
2022/09/05 00:09:03;;;;;;;5.67;2.90;;;;;;;;;;5027395;28;20176;-79
2022/09/05 00:12:09;;;;;;;5.33;3.10;;;;;;;;;;5037911;28;20216;-80
2022/09/05 00:15:17;;;;;;;3.70;3.03;;;;;;;;;;5038716;28;20220;-79
2022/09/05 00:18:33;;;;;;;3.67;3.37;;;;;;;;;;5038559;28;20185;-79
2022/09/05 00:22:08;;;;;;;3.70;3.17;;;;;;;;;;5027712;28;20212;-79
2022/09/05 00:25:39;;;;;;;3.67;3.37;;;;;;;;;;5027869;28;20180;-79
2022/09/05 00:29:20;;;;;;;4.17;3.63;;;;;;;;;;5037650;28;20185;-79
2022/09/05 00:33:00;;;;;;;4.53;3.33;;;;;;;;;;5026887;28;20216;-79
2022/09/05 00:36:21;;;;;;;5.20;3.40;;;;;;;;;;5037780;28;20206;-79
2022/09/05 00:39:40;;;;;;;4.50;3.20;;;;;;;;;;5037887;28;20189;-79
2022/09/05 00:42:50;;;;;;;3.33;3.03;;;;;;;;;;5037338;28;20193;-79
2022/09/05 00:46:01;;;;;;;5.23;3.47;;;;;;;;;;5014937;28;20631;-79
2022/09/05 00:49:10;;;;;;;8.50;4.27;;;;;;;;;;5027259;28;20239;-79
2022/09/05 00:52:23;;;;;;;3.93;3.30;;;;;;;;;;5030598;28;20212;-78
2022/09/05 00:55:45;;;;;;;10.23;4.07;;;;;;;;;;5037601;28;20551;-78
2022/09/05 00:59:02;;;;;;;5.13;3.93;;;;;;;;;;5038454;28;20189;-79
2022/09/05 01:02:39;;;;;;;5.60;3.90;;;;;;;;;;5039835;28;20217;-80
2022/09/05 01:06:05;;;;;;;4.50;4.03;;;;;;;;;;5042240;28;20177;-78
2022/09/05 01:09:40;;;;;;;4.10;3.80;;;;;;;;;;5029549;28;20181;-79
2022/09/05 01:13:08;;;;;;;4.30;3.87;;;;;;;;;;5019425;28;20181;-78
2022/09/05 01:16:33;;;;;;;4.10;3.70;;;;;;;;;;5030952;28;20201;-78
2022/09/05 01:20:07;;;;;;;4.30;3.90;;;;;;;;;;5041822;28;20177;-79
2022/09/05 01:23:34;;;;;;;5.07;3.90;;;;;;;;;;5031389;28;20181;-79
2022/09/05 01:26:58;;;;;;;4.57;3.93;;;;;;;;;;5043486;28;20635;-79
2022/09/05 01:30:13;;;;;;;3.87;3.47;;;;;;;;;;5041857;28;20185;-79
2022/09/05 01:33:35;;;;;;;4.30;3.80;;;;;;;;;;5030086;28;20188;-79
2022/09/05 01:36:58;;;;;;;5.87;3.40;;;;;;;;;;5041807;28;20178;-79
2022/09/05 01:40:34;;;;;;;6.13;4.00;;;;;;;;;;5029583;28;20181;-79
2022/09/05 01:44:14;;;;;;;4.83;3.40;;;;;;;;;;5029162;28;20185;-79
2022/09/05 01:47:41;;;;;;;6.03;3.90;;;;;;;;;;5039628;28;20188;-79
2022/09/05 01:51:14;;;;;;;4.50;3.80;;;;;;;;;;5028020;28;20569;-78
2022/09/05 01:54:28;;;;;;;4.37;3.73;;;;;;;;;;5015872;28;20212;-78
2022/09/05 01:57:47;;;;;;;4.43;3.53;;;;;;;;;;5015864;28;20189;-79
2022/09/05 02:01:08;;;;;;;4.40;3.83;;;;;;;;;;5038614;28;20695;-79
2022/09/05 02:04:48;;;;;;;7.23;3.60;;;;;;;;;;5026575;28;20177;-79
2022/09/05 02:08:17;;;;;;;4.93;3.23;;;;;;;;;;5025597;28;20201;-79
2022/09/05 02:11:43;;;;;;;4.77;3.87;;;;;;;;;;5014495;28;20224;-79
2022/09/05 02:14:59;;;;;;;5.40;3.80;;;;;;;;;;5014990;28;20209;-79
2022/09/05 02:18:10;;;;;;;4.33;3.70;;;;;;;;;;5026456;28;20178;-78
2022/09/05 02:21:28;;;;;;;5.33;3.67;;;;;;;;;;5027820;28;20212;-79
2022/09/05 02:24:36;;;;;;;3.93;3.50;;;;;;;;;;5030156;28;20177;-79
2022/09/05 02:27:48;;;;;;;3.90;3.50;;;;;;;;;;5030575;28;20185;-79
2022/09/05 02:31:00;;;;;;;5.53;3.70;;;;;;;;;;5030536;28;20216;-79
2022/09/05 02:34:26;;;;;;;6.77;4.27;;;;;;;;;;5041741;28;20625;-79
2022/09/05 02:37:45;;;;;;;5.17;4.47;;;;;;;;;;5041095;28;20181;-78
2022/09/05 02:40:59;;;;;;;4.87;4.23;;;;;;;;;;5029828;28;20213;-79
2022/09/05 02:44:19;;;;;;;4.60;4.10;;;;;;;;;;5019183;28;20181;-78
2022/09/05 02:47:49;;;;;;;5.60;3.90;;;;;;;;;;5040437;28;20642;-79
2022/09/05 02:51:09;;;;;;;5.43;3.57;;;;;;;;;;5029825;28;20221;-79
2022/09/05 02:54:22;;;;;;;3.90;3.50;;;;;;;;;;5039321;28;20185;-79
2022/09/05 02:57:47;;;;;;;5.87;4.10;;;;;;;;;;5016675;28;20196;-79
2022/09/05 03:01:15;;;;;;;4.87;4.33;;;;;;;;;;5028112;28;20663;-79
2022/09/05 03:04:28;;;;;;;6.47;4.10;;;;;;;;;;5027840;28;20172;-77
2022/09/05 03:08:10;;;;;;;7.50;4.00;;;;;;;;;;5028161;28;20181;-79
2022/09/05 03:11:46;;;;;;;7.30;4.07;;;;;;;;;;5027695;28;20212;-79
2022/09/05 03:15:28;;;;;;;5.83;4.53;;;;;;;;;;5028658;28;20216;-78
2022/09/05 03:19:01;;;;;;;3.93;3.53;;;;;;;;;;5029159;28;20181;-79
2022/09/05 03:22:34;;;;;;;4.80;3.90;;;;;;;;;;5028430;28;20208;-79
2022/09/05 03:26:07;;;;;;;4.93;4.23;;;;;;;;;;5040294;28;20173;-78
2022/09/05 03:29:35;;;;;;;6.43;4.93;;;;;;;;;;5029383;28;20177;-78
2022/09/05 03:33:02;;;;;;;4.90;4.50;;;;;;;;;;5027548;28;20556;-78
2022/09/05 03:36:21;;;;;;;4.97;4.20;;;;;;;;;;5028160;28;20213;-78
2022/09/05 03:39:50;;;;;;;5.43;4.77;;;;;;;;;;5039945;28;20648;-78
2022/09/05 03:43:04;;;;;;;5.57;4.13;;;;;;;;;;5030665;28;20177;-78
2022/09/05 03:46:47;;;;;;;5.33;4.03;;;;;;;;;;5040460;28;20628;-78
2022/09/05 03:50:21;;;;;;;5.40;3.87;;;;;;;;;;5021203;28;20181;-79
2022/09/05 03:53:49;;;;;;;4.83;4.30;;;;;;;;;;4996143;28;20177;-79
2022/09/05 03:57:21;;;;;;;6.30;4.00;;;;;;;;;;4996866;28;20177;-79
2022/09/05 04:00:32;;;;;;;6.20;4.27;;;;;;;;;;5022544;28;20213;-79
2022/09/05 04:03:45;;;;;;;5.03;4.30;;;;;;;;;;5030324;28;20185;-79
2022/09/05 04:06:59;;;;;;;5.20;4.67;;;;;;;;;;5018775;28;20194;-79
2022/09/05 04:10:08;;;;;;;9.60;4.50;;;;;;;;;;5018781;28;20205;-79
2022/09/05 04:13:38;;;;;;;7.03;3.80;;;;;;;;;;5019431;28;20178;-78
2022/09/05 04:16:55;;;;;;;4.90;3.77;;;;;;;;;;5007097;28;20225;-78
2022/09/05 04:20:24;;;;;;;30.47;5.60;;;;;;;;;;5007142;28;20182;-79
2022/09/05 04:24:01;;;;;;;13.07;4.27;;;;;;;;;;5007190;28;20182;-79
2022/09/05 04:27:36;;;;;;;10.77;4.33;;;;;;;;;;5017984;28;20518;-79
2022/09/05 04:31:03;;;;;;;42.20;5.90;;;;;;;;;;5007063;28;20221;-78
2022/09/05 04:34:36;;;;;;;19.10;5.40;;;;;;;;;;4995762;28;20178;-79
2022/09/05 04:37:46;;;;;;;14.67;4.27;;;;;;;;;;5006408;28;20197;-79
2022/09/05 04:41:02;;;;;;;13.10;4.33;;;;;;;;;;5018475;28;20213;-78
2022/09/05 04:44:20;;;;;;;16.07;4.33;;;;;;;;;;5016946;28;20182;-78
2022/09/05 04:47:34;;;;;;;8.53;3.97;;;;;;;;;;5006246;28;20189;-79
2022/09/05 04:51:05;;;;;;;8.23;3.67;;;;;;;;;;5005677;28;20217;-79
2022/09/05 04:54:13;;;;;;;7.70;4.20;;;;;;;;;;5006067;28;20177;-79
2022/09/05 04:57:40;;;;;;;10.67;4.60;;;;;;;;;;5017207;28;20178;-79
2022/09/05 05:01:03;;;;;;;6.23;4.93;;;;;;;;;;5006260;28;20676;-78
2022/09/05 05:04:15;;;;;;;8.53;4.83;;;;;;;;;;5017590;28;20182;-79
2022/09/05 05:07:23;;;;;;;7.27;4.47;;;;;;;;;;4994345;28;20522;-79
2022/09/05 05:10:41;;;;;;;7.53;3.93;;;;;;;;;;5017851;28;20518;-78
2022/09/05 05:13:51;;;;;;;11.53;5.47;;;;;;;;;;5005631;28;20178;-79
2022/09/05 05:17:07;;;;;;;7.03;4.63;;;;;;;;;;5005619;28;20224;-78
2022/09/05 05:20:25;;;;;;;12.87;4.50;;;;;;;;;;5015242;28;20633;-78
2022/09/05 05:23:37;;;;;;;12.07;4.57;;;;;;;;;;5014880;28;20201;-79
2022/09/05 05:26:50;;;;;;;13.20;4.80;;;;;;;;;;5031617;28;20205;-78
2022/09/05 05:30:00;;;;;;;9.97;4.50;;;;;;;;;;5025406;28;20184;-79
2022/09/05 05:33:27;;;;;;;9.13;4.67;;;;;;;;;;5019549;28;20182;-78
2022/09/05 05:36:44;;;;;;;21.33;5.20;;;;;;;;;;5015396;28;20209;-77
2022/09/05 05:40:07;;;;;;;23.07;5.60;;;;;;;;;;5007108;28;20197;-78
2022/09/05 05:43:33;;;;;;;16.60;5.37;;;;;;;;;;5024475;28;20201;-78
2022/09/05 05:46:39;;;;;;;9.57;4.60;;;;;;;;;;5014492;28;20197;-78
2022/09/05 05:49:57;;;;;;;14.80;5.40;;;;;;;;;;5016704;28;20629;-78
2022/09/05 05:53:28;;;;;;;11.63;5.57;;;;;;;;;;5004170;28;20182;-78
2022/09/05 05:56:39;;;;;;;10.53;4.90;;;;;;;;;;5017678;28;20209;-77
2022/09/05 05:59:55;;;;;;;11.00;5.00;;;;;;;;;;5005836;28;20182;-78
2022/09/05 06:03:24;;;;;;;8.53;4.13;;;;;;;;;;5019157;28;20533;-78
2022/09/05 06:06:31;;;;;;;8.07;5.60;;;;;;;;;;5022277;28;20181;-78
2022/09/05 06:10:05;;;;;;;8.23;5.93;;;;;;;;;;5024394;28;20201;-79
2022/09/05 06:13:39;;;;;;;11.67;6.40;;;;;;;;;;5000379;28;20177;-79
2022/09/05 06:16:43;;;;;;;13.97;8.23;;;;;;;;;;5011278;28;20242;-78
2022/09/05 06:20:13;;;;;;;10.47;6.93;;;;;;;;;;5021607;28;20197;-78
2022/09/05 06:23:32;;;;;;;8.73;7.70;;;;;;;;;;5021261;28;20170;-78
2022/09/05 06:26:44;;;;;;;13.80;7.67;;;;;;;;;;5021350;28;20190;-78
2022/09/05 06:29:56;;;;;;;11.63;7.83;;;;;;;;;;5009521;28;20628;-78
2022/09/05 06:33:26;;;;;;;18.67;9.50;;;;;;;;;;5032317;28;20182;-79
2022/09/05 06:36:49;;;;;;;18.67;8.27;;;;;;;;;;5019149;28;20209;-78
2022/09/05 06:40:07;;;;;;;19.17;9.03;;;;;;;;;;5018738;28;20177;-78
2022/09/05 06:43:32;;;;;;;18.77;7.43;;;;;;;;;;5007573;28;20185;-79
2022/09/05 06:46:48;;;;;;;11.80;6.47;;;;;;;;;;5018454;28;20182;-78
2022/09/05 06:50:13;;;;;;;10.03;6.20;;;;;;;;;;5029995;28;20182;-78
2022/09/05 06:53:44;;;;;;;9.40;5.57;;;;;;;;;;5007771;28;20533;-78
2022/09/05 06:57:34;;;;;;;6.03;4.43;;;;;;;;;;5030560;28;20213;-78
2022/09/05 07:00:51;;;;;;;30.77;5.80;;;;;;;;;;5021132;28;20225;-78
2022/09/05 07:04:12;;;;;;;15.53;4.80;;;;;;;;;;5029704;28;20193;-78
2022/09/05 07:07:36;;;;;;;13.60;4.33;;;;;;;;;;5012551;28;20190;-78
2022/09/05 07:10:49;;;;;;;6.53;3.77;;;;;;;;;;5018802;28;20217;-78
2022/09/05 07:14:21;;;;;;;8.77;4.23;;;;;;;;;;5018274;28;20189;-78
2022/09/05 07:17:35;;;;;;;4.37;3.87;;;;;;;;;;5025536;28;20205;-78
2022/09/05 07:20:46;;;;;;;17.93;4.30;;;;;;;;;;5036600;28;20220;-78
2022/09/05 07:24:08;;;;;;;18.93;4.60;;;;;;;;;;5036359;28;20189;-78
2022/09/05 07:27:37;;;;;;;11.33;4.10;;;;;;;;;;5037748;28;20177;-78
2022/09/05 07:30:52;;;;;;;5.63;4.53;;;;;;;;;;5037857;28;20212;-78
2022/09/05 07:34:21;;;;;;;5.60;3.60;;;;;;;;;;5026373;28;20189;-78
2022/09/05 07:37:35;;;;;;;26.53;5.73;;;;;;;;;;5038527;28;20209;-79
2022/09/05 07:41:02;;;;;;;4.93;4.10;;;;;;;;;;5037184;28;20216;-78
2022/09/05 07:44:13;;;;;;;7.43;4.20;;;;;;;;;;5037871;28;20522;-78
2022/09/05 07:47:30;;;;;;;13.63;4.00;;;;;;;;;;5039175;28;20181;-79
2022/09/05 07:50:48;;;;;;;34.10;4.30;;;;;;;;;;5026446;28;20185;-79
2022/09/05 07:53:56;;;;;;;7.40;2.97;;;;;;;;;;5038330;28;20178;-79
2022/09/05 07:57:08;;;;;;;3.50;2.40;;;;;;;;;;5038369;28;20200;-78
2022/09/05 08:00:18;;;;;;;2.90;2.60;;;;;;;;;;5025967;28;20211;-78
2022/09/05 08:03:28;;;;;;;3.90;2.63;;;;;;;;;;5035241;28;20181;-76
2022/09/05 08:06:33;;;;;;;5.43;2.73;;;;;;;;;;5033836;28;20189;-75
2022/09/05 08:09:44;;;;;;;5.77;2.53;;;;;;;;;;5022791;28;20196;-78
2022/09/05 08:13:06;;;;;;;4.50;2.43;;;;;;;;;;5032673;28;20204;-79
2022/09/05 08:16:15;;;;;;;10.23;2.50;;;;;;;;;;5031696;28;20220;-79
2022/09/05 08:19:43;;;;;;;3.97;2.30;;;;;;;;;;5036860;28;20182;-79
2022/09/05 08:23:03;;;;;;;2.90;2.60;;;;;;;;;;5037718;28;20185;-80
2022/09/05 08:26:11;;;;;;;4.00;2.20;;;;;;;;;;5037375;28;20175;-80
2022/09/05 08:29:36;;;;;;;7.03;2.30;;;;;;;;;;5033945;28;20194;-77
2022/09/05 08:32:58;;;;;;;4.07;1.80;;;;;;;;;;5045406;28;20223;-78
2022/09/05 08:36:33;;;;;;;5.33;2.20;;;;;;;;;;5025816;28;20211;-78
2022/09/05 08:39:39;;;;;;;7.60;2.30;;;;;;;;;;5039520;28;20181;-79
2022/09/05 08:42:54;;;;;;;10.73;2.30;;;;;;;;;;5023270;28;20202;-79
2022/09/05 08:46:01;;;;;;;2.37;2.00;;;;;;;;;;5042523;28;20187;-78
2022/09/05 08:49:31;;;;;;;2.72;2.22;;;;;;;;;;5036953;28;20200;-80
2022/09/05 08:52:51;;;;;;;15.25;2.20;;;;;;;;;;5008075;28;20222;-79
2022/09/05 08:56:14;;;;;;;12.73;2.03;;;;;;;;;;5032201;28;20185;-80
2022/09/05 08:59:43;;;;;;;2.28;1.60;;;;;;;;;;5030491;28;20179;-80
2022/09/05 09:03:06;;;;;;;3.55;1.88;;;;;;;;;;5026057;28;20182;-78
2022/09/05 09:06:25;;;;;;;35.47;2.90;;;;;;;;;;5047644;22;20241;-79
2022/09/05 09:09:48;;;;;;;7.85;1.90;;;;;;;;;;5018518;28;20220;-79
2022/09/05 09:13:06;;;;;;;17.13;2.58;;;;;;;;;;4987847;28;20187;-79
2022/09/05 09:16:33;;;;;;;28.50;3.22;;;;;;;;;;4978927;28;20213;-79
2022/09/05 09:19:48;;;;;;;19.35;2.67;;;;;;;;;;4993031;28;20182;-79
2022/09/05 09:22:58;;;;;;;5.32;1.60;;;;;;;;;;4974900;28;20180;-79
2022/09/05 09:26:14;;;;;;;1.55;1.42;;;;;;;;;;4985890;28;20190;-79
2022/09/05 09:29:20;;;;;;;16.30;2.08;;;;;;;;;;5000370;28;20198;-79
2022/09/05 09:32:24;;;;;;;5.97;1.70;;;;;;;;;;4987726;28;20214;-80
2022/09/05 09:35:51;;;;;;;10.55;2.10;;;;;;;;;;4981338;28;20179;-80
2022/09/05 09:39:03;;;;;;;3.83;1.85;;;;;;;;;;4995146;28;20178;-80
2022/09/05 09:42:27;;;;;;;76.93;6.30;;;;;;;;;;4992206;28;20229;-80
2022/09/05 09:46:01;;;;;;;16.73;2.08;;;;;;;;;;4992902;28;20175;-80
2022/09/05 09:49:29;;;;;;;6.57;1.90;;;;;;;;;;4982122;28;20189;-80
2022/09/05 09:53:11;;;;;;;22.88;2.28;;;;;;;;;;4981943;28;20225;-79
2022/09/05 09:56:34;;;;;;;2.95;1.80;;;;;;;;;;5003725;28;20523;-80
2022/09/05 10:00:06;;;;;;;5.85;2.15;;;;;;;;;;5005770;28;20187;-81
2022/09/05 10:03:31;;;;;;;14.70;1.75;;;;;;;;;;4981556;28;20179;-80
2022/09/05 10:06:57;;;;;;;2.08;1.70;;;;;;;;;;5004605;28;20202;-80
2022/09/05 10:10:47;;;;;;;8.38;1.52;;;;;;;;;;4981075;28;20186;-81
2022/09/05 10:14:06;;;;;;;4.00;1.40;;;;;;;;;;4943595;28;20703;-80
2022/09/05 10:17:20;;;;;;;2.25;0.93;;;;;;;;;;4981338;28;20206;-81
2022/09/05 10:20:38;;;;;;;2.47;1.38;;;;;;;;;;5004185;28;20195;-80
2022/09/05 10:24:20;;;;;;;16.67;2.05;;;;;;;;;;4979000;28;20183;-81
2022/09/05 10:27:36;;;;;;;1.27;1.13;;;;;;;;;;4979586;28;20199;-81
2022/09/05 10:30:56;;;;;;;3.75;1.40;;;;;;;;;;4992958;28;20214;-80
2022/09/05 10:34:17;;;;;;;1.48;1.23;;;;;;;;;;4996028;28;20178;-80
2022/09/05 10:37:34;;;;;;;3.58;1.23;;;;;;;;;;4984260;28;20190;-80
2022/09/05 10:40:43;;;;;;;1.58;1.48;;;;;;;;;;4981856;28;20218;-80
2022/09/05 10:44:01;;;;;;;3.00;1.50;;;;;;;;;;4974651;28;20186;-80
2022/09/05 10:47:17;;;;;;;4.65;1.40;;;;;;;;;;5012926;28;20183;-80
2022/09/05 10:50:34;;;;;;;13.85;1.63;;;;;;;;;;4982188;28;20186;-80
2022/09/05 10:53:48;;;;;;;2.13;1.15;;;;;;;;;;4988529;28;20187;-81
2022/09/05 10:57:04;;;;;;;2.28;1.33;;;;;;;;;;4979593;28;20269;-81
2022/09/05 11:00:32;;;;;;;6.22;1.48;;;;;;;;;;4993475;28;20187;-81
2022/09/05 11:03:50;;;;;;;2.25;1.05;;;;;;;;;;5005548;28;20182;-82
2022/09/05 11:07:22;;;;;;;16.48;2.08;;;;;;;;;;4994305;28;20198;-80
2022/09/05 11:10:36;;;;;;;1.55;1.30;;;;;;;;;;4995833;28;20186;-81
2022/09/05 11:13:46;;;;;;;16.55;1.67;;;;;;;;;;4997998;28;20183;-80
2022/09/05 11:17:04;;;;;;;2.22;1.20;;;;;;;;;;4990401;28;20218;-79
2022/09/05 11:20:42;;;;;;;165.13;9.88;;;;;;;;;;4977530;28;20525;-80
2022/09/05 11:23:52;;;;;;;53.88;3.85;;;;;;;;;;5000560;28;20196;-80
2022/09/05 11:27:29;;;;;;;22.10;2.38;;;;;;;;;;4977818;28;20186;-80
2022/09/05 11:30:39;;;;;;;2.38;1.90;;;;;;;;;;4996264;28;20183;-81
2022/09/05 11:33:55;;;;;;;4.00;1.33;;;;;;;;;;4977035;28;20187;-80
2022/09/05 11:37:01;;;;;;;4.85;1.45;;;;;;;;;;4987762;28;20214;-80
2022/09/05 11:40:21;;;;;;;5.18;1.10;;;;;;;;;;4977461;28;20183;-80
2022/09/05 11:43:34;;;;;;;2.92;1.40;;;;;;;;;;5000368;28;20175;-79
2022/09/05 11:46:49;;;;;;;11.98;2.00;;;;;;;;;;4977093;28;20187;-80
2022/09/05 11:50:15;;;;;;;1.30;1.17;;;;;;;;;;4986866;28;20187;-79
2022/09/05 11:53:57;;;;;;;2.47;1.13;;;;;;;;;;4986747;28;20542;-79
2022/09/05 11:57:25;;;;;;;4.55;1.90;;;;;;;;;;4990615;28;20219;-80
2022/09/05 12:00:58;;;;;;;2.28;1.00;;;;;;;;;;5002436;28;20186;-80
2022/09/05 12:04:27;;;;;;;4.88;1.40;;;;;;;;;;4979635;28;20187;-80
2022/09/05 12:08:04;;;;;;;2.50;1.08;;;;;;;;;;4977674;28;20209;-81
2022/09/05 12:11:19;;;;;;;2.45;1.17;;;;;;;;;;5001942;28;20226;-80
2022/09/05 12:14:51;;;;;;;84.50;5.72;;;;;;;;;;4991667;28;20178;-81
2022/09/05 12:18:14;;;;;;;1.45;1.30;;;;;;;;;;4981790;28;20211;-80
2022/09/05 12:21:34;;;;;;;13.27;1.80;;;;;;;;;;4991802;28;20566;-80
2022/09/05 12:24:55;;;;;;;2.97;1.33;;;;;;;;;;4991457;28;20183;-81
2022/09/05 12:28:06;;;;;;;2.97;1.30;;;;;;;;;;4979260;28;20187;-80
2022/09/05 12:31:13;;;;;;;11.98;1.45;;;;;;;;;;4978695;28;20218;-80
2022/09/05 12:34:49;;;;;;;5.82;1.27;;;;;;;;;;4987058;28;20187;-80
2022/09/05 12:38:18;;;;;;;1.05;0.90;;;;;;;;;;4987432;28;20206;-80
2022/09/05 12:41:27;;;;;;;2.15;1.00;;;;;;;;;;4976333;28;20701;-80
2022/09/05 12:44:46;;;;;;;9.55;1.70;;;;;;;;;;4987270;28;20182;-81
2022/09/05 12:48:25;;;;;;;16.70;2.05;;;;;;;;;;4987918;28;20179;-81
2022/09/05 12:51:32;;;;;;;11.45;1.95;;;;;;;;;;4977043;28;20572;-80
2022/09/05 12:54:53;;;;;;;1.42;1.33;;;;;;;;;;4966005;28;20178;-80
2022/09/05 12:58:01;;;;;;;1.30;1.00;;;;;;;;;;4977126;28;20210;-81
2022/09/05 13:01:11;;;;;;;6.57;1.48;;;;;;;;;;4987303;28;20230;-80
2022/09/05 13:04:23;;;;;;;7.18;1.40;;;;;;;;;;4982828;28;20534;-81
2022/09/05 13:07:48;;;;;;;3.33;1.50;;;;;;;;;;5011784;28;20198;-81
2022/09/05 13:10:57;;;;;;;22.58;2.17;;;;;;;;;;4997408;28;20214;-80
2022/09/05 13:14:14;;;;;;;5.93;1.50;;;;;;;;;;4974960;28;20186;-80
2022/09/05 13:17:29;;;;;;;2.92;1.35;;;;;;;;;;5009583;28;20554;-80
2022/09/05 13:20:45;;;;;;;2.03;1.60;;;;;;;;;;4985277;28;20191;-80
2022/09/05 13:24:20;;;;;;;14.02;1.70;;;;;;;;;;4985531;28;20191;-80
2022/09/05 13:27:32;;;;;;;2.63;1.30;;;;;;;;;;4997275;28;20179;-80
2022/09/05 13:30:48;;;;;;;3.28;1.50;;;;;;;;;;4996853;28;20179;-80
2022/09/05 13:33:53;;;;;;;2.58;1.10;;;;;;;;;;5008092;28;20178;-80
2022/09/05 13:37:02;;;;;;;2.75;1.20;;;;;;;;;;4995857;28;20182;-80
2022/09/05 13:40:22;;;;;;;4.32;1.25;;;;;;;;;;4995892;28;20179;-80
2022/09/05 13:43:34;;;;;;;1.83;1.30;;;;;;;;;;4984976;28;20195;-80
2022/09/05 13:47:01;;;;;;;93.80;7.78;;;;;;;;;;4994908;28;20186;-80
2022/09/05 13:50:29;;;;;;;14.77;1.75;;;;;;;;;;5007662;28;20179;-80
2022/09/05 13:53:42;;;;;;;5.32;1.38;;;;;;;;;;5006248;28;20178;-80
2022/09/05 13:56:59;;;;;;;10.40;1.77;;;;;;;;;;4983305;28;20179;-80
2022/09/05 14:00:10;;;;;;;3.22;1.52;;;;;;;;;;4973725;28;20175;-79
2022/09/05 14:03:48;;;;;;;8.95;1.75;;;;;;;;;;4995482;28;20187;-80
2022/09/05 14:07:20;;;;;;;4.13;1.55;;;;;;;;;;4983357;28;20210;-80
2022/09/05 14:10:42;;;;;;;2.03;1.30;;;;;;;;;;4996709;28;20194;-80
2022/09/05 14:14:24;;;;;;;21.80;2.22;;;;;;;;;;4983729;28;20183;-80
2022/09/05 14:17:51;;;;;;;20.42;2.35;;;;;;;;;;4997852;28;20179;-80
2022/09/05 14:21:16;;;;;;;8.10;1.52;;;;;;;;;;5011213;28;20218;-80
2022/09/05 14:24:24;;;;;;;3.63;1.30;;;;;;;;;;5017996;28;20175;-80
2022/09/05 14:27:31;;;;;;;6.80;1.60;;;;;;;;;;4993951;28;20182;-80
2022/09/05 14:30:44;;;;;;;22.10;2.70;;;;;;;;;;4991042;28;20182;-80
2022/09/05 14:34:17;;;;;;;4.18;1.20;;;;;;;;;;5003055;28;20198;-81
2022/09/05 14:37:39;;;;;;;2.72;1.00;;;;;;;;;;4999990;28;20187;-79
2022/09/05 14:40:50;;;;;;;17.02;5.68;;;;;;;;;;5000825;28;20226;-80
2022/09/05 14:44:35;;;;;;;73.60;8.70;;;;;;;;;;4999485;28;20182;-80
2022/09/05 14:47:56;;;;;;;5.40;1.65;;;;;;;;;;4999462;28;20183;-80
2022/09/05 14:51:26;;;;;;;10.75;2.13;;;;;;;;;;4991168;28;20338;-80
2022/09/05 14:54:38;;;;;;;3.47;1.30;;;;;;;;;;4980384;28;20178;-79
2022/09/05 14:57:46;;;;;;;3.20;1.30;;;;;;;;;;4991395;28;20178;-80
2022/09/05 15:00:58;;;;;;;16.50;2.22;;;;;;;;;;5004735;28;20218;-80
2022/09/05 15:04:05;;;;;;;18.63;2.33;;;;;;;;;;5003791;28;20182;-80
2022/09/05 15:07:26;;;;;;;4.90;1.80;;;;;;;;;;4979119;28;20210;-82
2022/09/05 15:10:34;;;;;;;4.28;1.75;;;;;;;;;;5000789;28;20187;-82
2022/09/05 15:13:55;;;;;;;2.90;1.40;;;;;;;;;;4999480;28;20187;-81
2022/09/05 15:17:03;;;;;;;4.90;1.48;;;;;;;;;;4986735;28;20187;-81
2022/09/05 15:20:08;;;;;;;3.97;1.40;;;;;;;;;;4987008;28;20174;-81
2022/09/05 15:23:18;;;;;;;1.85;1.05;;;;;;;;;;4977034;28;20536;-80
2022/09/05 15:26:23;;;;;;;1.30;1.20;;;;;;;;;;4980767;28;20183;-77
2022/09/05 15:29:33;;;;;;;11.82;1.77;;;;;;;;;;4993189;28;20175;-80
2022/09/05 15:32:37;;;;;;;11.75;1.75;;;;;;;;;;5004869;28;20214;-78
2022/09/05 15:35:43;;;;;;;10.60;1.95;;;;;;;;;;4981083;28;20189;-77
2022/09/05 15:38:49;;;;;;;17.20;1.92;;;;;;;;;;4993139;28;20212;-80
2022/09/05 15:41:58;;;;;;;40.47;3.30;;;;;;;;;;4982910;28;20229;-80
2022/09/05 15:45:10;;;;;;;32.78;3.80;;;;;;;;;;4982428;28;20195;-80
2022/09/05 15:48:21;;;;;;;11.80;2.00;;;;;;;;;;4983073;28;20178;-80
2022/09/05 15:51:49;;;;;;;10.90;1.90;;;;;;;;;;4980505;28;20220;-80
2022/09/05 15:54:55;;;;;;;5.05;1.73;;;;;;;;;;5002259;28;20494;-80
2022/09/05 15:58:05;;;;;;;9.77;1.40;;;;;;;;;;5002260;28;20185;-80
2022/09/05 16:01:14;;;;;;;4.80;1.30;;;;;;;;;;4989233;28;20694;-80
2022/09/05 16:04:22;;;;;;;7.25;1.83;;;;;;;;;;4988543;28;20175;-81
2022/09/05 16:07:27;;;;;;;37.35;2.90;;;;;;;;;;4977475;28;20674;-80
2022/09/05 16:10:33;;;;;;;4.07;1.52;;;;;;;;;;4989210;28;20185;-79
2022/09/05 16:13:41;;;;;;;19.73;2.00;;;;;;;;;;5000731;28;20205;-80
2022/09/05 16:16:51;;;;;;;10.68;2.00;;;;;;;;;;4989711;28;20176;-80
2022/09/05 16:20:07;;;;;;;7.38;1.85;;;;;;;;;;4989804;28;20569;-80
2022/09/05 16:23:28;;;;;;;25.85;2.70;;;;;;;;;;4988671;28;20191;-79
2022/09/05 16:26:40;;;;;;;59.92;3.70;;;;;;;;;;4998585;28;20186;-80
2022/09/05 16:29:47;;;;;;;12.35;2.45;;;;;;;;;;4999955;28;20177;-80
2022/09/05 16:32:59;;;;;;;146.48;9.18;;;;;;;;;;4976310;28;20256;-80
2022/09/05 16:36:11;;;;;;;47.53;4.32;;;;;;;;;;4990916;28;20192;-83
2022/09/05 16:39:21;;;;;;;35.13;2.90;;;;;;;;;;5006988;28;20208;-82
2022/09/05 16:42:41;;;;;;;70.32;5.65;;;;;;;;;;4984628;28;20217;-83
2022/09/05 16:46:02;;;;;;;22.83;2.63;;;;;;;;;;5006575;28;20189;-82
2022/09/05 16:49:20;;;;;;;9.82;1.90;;;;;;;;;;5006508;28;20171;-79
2022/09/05 16:53:04;;;;;;;3.47;1.40;;;;;;;;;;4986548;28;20216;-78
2022/09/05 16:56:21;;;;;;;3.92;1.60;;;;;;;;;;4999003;28;20206;-79
2022/09/05 16:59:29;;;;;;;5.90;1.73;;;;;;;;;;4987237;28;20210;-78
2022/09/05 17:02:43;;;;;;;3.05;1.33;;;;;;;;;;4975392;28;20219;-78
2022/09/05 17:05:53;;;;;;;2.03;1.30;;;;;;;;;;4997305;28;20183;-78
2022/09/05 17:09:04;;;;;;;7.03;1.70;;;;;;;;;;4997521;28;20514;-78
2022/09/05 17:12:16;;;;;;;3.10;1.60;;;;;;;;;;4986307;28;20224;-78
2022/09/05 17:15:26;;;;;;;2.23;1.27;;;;;;;;;;4998516;28;20178;-78
2022/09/05 17:18:33;;;;;;;7.87;1.40;;;;;;;;;;4998715;28;20213;-78
2022/09/05 17:21:44;;;;;;;3.00;1.60;;;;;;;;;;4974925;28;20225;-78
2022/09/05 17:25:07;;;;;;;4.17;1.60;;;;;;;;;;4985501;28;20186;-82
2022/09/05 17:28:46;;;;;;;3.17;1.60;;;;;;;;;;4974847;28;20520;-81
2022/09/05 17:31:54;;;;;;;27.33;2.50;;;;;;;;;;4974444;28;20208;-82
2022/09/05 17:34:59;;;;;;;3.37;1.67;;;;;;;;;;4963447;28;20189;-81
2022/09/05 17:38:27;;;;;;;30.80;2.60;;;;;;;;;;4984752;28;20543;-81
2022/09/05 17:41:57;;;;;;;13.27;2.27;;;;;;;;;;4973680;28;20222;-79
2022/09/05 17:45:08;;;;;;;2.00;1.43;;;;;;;;;;4990970;28;20530;-79
2022/09/05 17:48:17;;;;;;;1.60;1.40;;;;;;;;;;4980171;28;20193;-80
2022/09/05 17:51:25;;;;;;;6.13;1.30;;;;;;;;;;4984100;28;20220;-79
2022/09/05 17:54:32;;;;;;;4.13;1.60;;;;;;;;;;4994547;28;20194;-79
2022/09/05 17:57:38;;;;;;;8.80;1.73;;;;;;;;;;4997464;28;20209;-81
2022/09/05 18:00:44;;;;;;;2.30;1.67;;;;;;;;;;4996598;28;20222;-80
2022/09/05 18:03:48;;;;;;;3.60;1.70;;;;;;;;;;4969708;28;20512;-84
2022/09/05 18:06:52;;;;;;;3.93;2.07;;;;;;;;;;4981487;28;20218;-79
2022/09/05 18:09:56;;;;;;;42.50;3.03;;;;;;;;;;4969473;28;20179;-79
2022/09/05 18:13:15;;;;;;;5.43;1.90;;;;;;;;;;4979129;28;20183;-78
2022/09/05 18:16:31;;;;;;;3.63;1.73;;;;;;;;;;4979925;28;20180;-78
2022/09/05 18:19:41;;;;;;;2.93;1.87;;;;;;;;;;4968106;28;20210;-78
2022/09/05 18:22:59;;;;;;;1.90;1.70;;;;;;;;;;4979539;28;20191;-78
2022/09/05 18:26:05;;;;;;;3.07;2.00;;;;;;;;;;4979478;28;20183;-78
2022/09/05 18:29:33;;;;;;;4.90;1.97;;;;;;;;;;4968817;28;20179;-78
2022/09/05 18:32:43;;;;;;;5.73;1.80;;;;;;;;;;4980717;28;20218;-78
2022/09/05 18:35:53;;;;;;;4.50;2.13;;;;;;;;;;4981286;28;20183;-79
2022/09/05 18:39:24;;;;;;;3.27;1.77;;;;;;;;;;4979705;28;20654;-79
2022/09/05 18:42:29;;;;;;;2.93;1.90;;;;;;;;;;4979756;28;20705;-78
2022/09/05 18:45:34;;;;;;;3.90;2.03;;;;;;;;;;4979985;28;20186;-78
2022/09/05 18:48:44;;;;;;;3.43;2.03;;;;;;;;;;4979893;28;20567;-78
2022/09/05 18:51:56;;;;;;;3.40;1.93;;;;;;;;;;4967155;28;20210;-78
2022/09/05 18:55:22;;;;;;;2.63;1.97;;;;;;;;;;4978299;28;20187;-78
2022/09/05 18:58:31;;;;;;;2.17;1.90;;;;;;;;;;4967612;28;20183;-78
2022/09/05 19:01:37;;;;;;;19.60;3.13;;;;;;;;;;4978522;28;20206;-77
2022/09/05 19:04:41;;;;;;;6.53;1.87;;;;;;;;;;4978120;28;20175;-77
2022/09/05 19:07:50;;;;;;;9.20;2.40;;;;;;;;;;4977928;28;20673;-79
2022/09/05 19:10:56;;;;;;;25.57;2.50;;;;;;;;;;4979435;28;20215;-78
2022/09/05 19:14:19;;;;;;;4.63;2.07;;;;;;;;;;4978713;28;20179;-77
2022/09/05 19:17:36;;;;;;;2.40;2.07;;;;;;;;;;4978093;28;20195;-77
2022/09/05 19:21:05;;;;;;;7.30;1.90;;;;;;;;;;4967787;28;20227;-78
2022/09/05 19:24:11;;;;;;;4.43;2.17;;;;;;;;;;4979587;28;20187;-77
2022/09/05 19:27:16;;;;;;;4.13;2.20;;;;;;;;;;4968321;28;20187;-78
2022/09/05 19:30:30;;;;;;;2.70;2.50;;;;;;;;;;4978806;28;20195;-77
2022/09/05 19:33:35;;;;;;;3.67;2.17;;;;;;;;;;4978439;28;20195;-77
2022/09/05 19:36:42;;;;;;;3.97;2.23;;;;;;;;;;4979665;28;20638;-77
2022/09/05 19:39:49;;;;;;;3.57;2.30;;;;;;;;;;4983635;28;20207;-77
2022/09/05 19:42:54;;;;;;;5.40;2.23;;;;;;;;;;4983763;28;20202;-77
2022/09/05 19:46:14;;;;;;;4.27;2.17;;;;;;;;;;4983208;28;20548;-77